March ARB Airport
KRIV : now visible

Airfield :











YOU CAN JOIN US ON...

 
LOGIN :

Register | Disclaimer

   EN    FR    IT 

 









Legend :    VFR   Marginal VFR   IFR   Intensive IFR   Very Intensive IFR
Visi :
Ceiling :
>= 8 km
>= 3000ft
5 to 8 km
1000 to 3000 ft
1500m to 5 km
500 to 1000 ft
800 to 1500m
200 to 500 ft
< 800m
< 200 ft
Symbols :   Thunderstorms  Fog  Heavy snow  Heavy precipitations  Wind > 20 kt







- Airport Elevation : 1536 ft


KRIV - March ARB

CURRENT METAR :
  • 220058Z AUTO 28011KT 10SM CLR 30/10 A2982 RMK AO2 SLP087 T02980103

EXPIRED METARs :
  • 212358Z AUTO 29004KT 10SM CLR 33/M02 A2982 RMK AO2 SLP086 T03281016 10333 20282 57012
  • 212258Z AUTO 30004KT 10SM CLR 33/00 A2982 RMK AO2 SLP085 T03301002

TAF TAF KRIV
Valid from the 21 at 20:00 until the 23 at 02:00 UTC


212001Z 2120/2302 31009KT 9999 SKC QNH2982INS
TEMPO 2121/2201 31012G18KT
BECMG 2204/2205 VRB03KT 9999 SCT300 QNH2986INS
BECMG 2215/2216 14006KT 9999 BKN250 QNH2994INS
BECMG 2219/2220 31009KT 9999 BKN250 QNH2986INS
TEMPO 2221/2301 31012G20KT TX34/2122Z TN10/2212Z
No reported NOTAMs for that airfield.



MET'MAP, your aeronautical weather chart ! - Copyright ORBIFLY December 2007 - Disclaimer

ORBIFLY MET'MAP TEAM :

Programming & Development : Alexandra Zaïnal
Concept & Development : Baudouin d'Aumeries
Co-Development & Prog : Marc-Olivier Méhu
Technical & hardware support : Manuel Goepfert

Contact : metmap@orbifly.com




SOURCES & CREDITS :

   NOAA       Earth
Advisory